Time;durP1;ratioP1;P1;durP2;ratioP2;P2;SDS_P1;SDS_P2;PMS_P1;PMS_P2;Temp;Humidity;BMP_temperature;BMP_pressure;BME280_temperature;BME280_humidity;BME280_pressure;Samples;Min_cycle;Max_cycle;Signal;HPM_P1;HPM_P2
2022/08/18 00:00:16;;;;;;;2.67;2.47;;;23.60;99.90;;;;;;5041187;28;20202;-74
2022/08/18 00:02:44;;;;;;;3.53;2.42;;;23.50;99.90;;;;;;5041891;28;20219;-75
2022/08/18 00:05:12;;;;;;;3.92;2.83;;;23.40;99.90;;;;;;5041306;28;20219;-74
2022/08/18 00:07:39;;;;;;;2.47;2.22;;;23.50;99.90;;;;;;5038516;28;20295;-75
2022/08/18 00:10:11;;;;;;;4.07;2.72;;;23.50;99.90;;;;;;5041192;28;20257;-74
2022/08/18 00:12:42;;;;;;;4.85;2.42;;;23.60;99.90;;;;;;5038920;28;20250;-75
2022/08/18 00:15:13;;;;;;;4.85;2.92;;;23.60;99.90;;;;;;5042632;28;20223;-74
2022/08/18 00:17:40;;;;;;;3.38;2.40;;;23.60;99.90;;;;;;5039627;28;20728;-74
2022/08/18 00:20:10;;;;;;;2.75;2.20;;;23.50;99.90;;;;;;5039151;28;20199;-75
2022/08/18 00:22:39;;;;;;;4.93;2.90;;;23.50;99.90;;;;;;5039525;28;20284;-74
2022/08/18 00:25:08;;;;;;;2.40;2.20;;;23.50;99.90;;;;;;5041024;28;20238;-75
2022/08/18 00:27:37;;;;;;;3.22;2.35;;;23.50;99.90;;;;;;5041272;28;20342;-78
2022/08/18 00:30:07;;;;;;;3.33;2.33;;;23.50;99.90;;;;;;5034389;28;20226;-78
2022/08/18 00:32:38;;;;;;;3.58;2.33;;;23.60;99.90;;;;;;5032576;28;20242;-79
2022/08/18 00:35:08;;;;;;;2.42;2.20;;;23.70;99.90;;;;;;5033084;28;20218;-77
2022/08/18 00:37:36;;;;;;;3.85;2.60;;;23.70;99.90;;;;;;5036284;28;20223;-77
2022/08/18 00:40:03;;;;;;;3.80;2.58;;;23.70;99.90;;;;;;5033009;28;20253;-78
2022/08/18 00:42:31;;;;;;;2.65;2.10;;;23.60;99.90;;;;;;5034281;28;20298;-78
2022/08/18 00:45:01;;;;;;;2.72;2.47;;;23.50;99.90;;;;;;5044945;28;20312;-77
2022/08/18 00:47:28;;;;;;;4.45;2.80;;;23.40;99.90;;;;;;5044451;28;20228;-77
2022/08/18 00:49:57;;;;;;;3.28;2.83;;;23.40;99.90;;;;;;5046941;28;21085;-76
2022/08/18 00:52:25;;;;;;;3.20;2.22;;;23.40;99.90;;;;;;5046450;28;20231;-77
2022/08/18 00:54:55;;;;;;;3.20;2.20;;;23.40;99.90;;;;;;5043362;28;20223;-77
2022/08/18 00:57:26;;;;;;;3.75;2.55;;;23.40;99.90;;;;;;5045796;28;20214;-76
2022/08/18 01:00:02;;;;;;;4.47;2.40;;;23.30;99.90;;;;;;5042534;28;20207;-76
2022/08/18 01:02:35;;;;;;;3.10;2.30;;;23.30;99.90;;;;;;5046804;28;20740;-76
2022/08/18 01:05:11;;;;;;;2.58;2.35;;;23.30;99.90;;;;;;5044600;28;20223;-76
2022/08/18 01:07:43;;;;;;;4.28;2.85;;;23.40;99.90;;;;;;5048286;28;20225;-76
2022/08/18 01:10:14;;;;;;;3.58;2.60;;;23.30;99.90;;;;;;5047017;28;20294;-76
2022/08/18 01:12:41;;;;;;;4.55;3.17;;;23.30;99.90;;;;;;5045323;28;20223;-77
2022/08/18 01:15:10;;;;;;;5.05;2.70;;;23.20;99.90;;;;;;5046738;28;20227;-76
2022/08/18 01:23:21;;;;;;;2.97;2.38;;;23.20;99.90;;;;;;5043182;28;20222;-76
2022/08/18 01:26:02;;;;;;;3.30;2.40;;;23.30;99.90;;;;;;5043669;28;20207;-77
2022/08/18 01:28:31;;;;;;;4.18;2.55;;;23.30;99.90;;;;;;5043276;28;20215;-76
2022/08/18 01:30:59;;;;;;;3.78;2.72;;;23.20;99.90;;;;;;5043401;28;20735;-76
2022/08/18 01:33:31;;;;;;;4.18;2.45;;;23.20;99.90;;;;;;5047829;28;20234;-76
2022/08/18 01:36:00;;;;;;;4.00;2.65;;;23.20;99.90;;;;;;5044338;28;20195;-77
2022/08/18 01:38:30;;;;;;;3.92;2.33;;;23.20;99.90;;;;;;5041459;28;20222;-76
2022/08/18 01:40:58;;;;;;;2.72;2.47;;;23.20;99.90;;;;;;5042108;28;20203;-76
2022/08/18 01:43:26;;;;;;;2.83;2.40;;;23.20;99.90;;;;;;5043885;28;20230;-76
2022/08/18 01:45:59;;;;;;;2.70;2.50;;;23.10;99.90;;;;;;5046758;28;20203;-76
2022/08/18 01:48:27;;;;;;;2.97;2.47;;;23.10;99.90;;;;;;5042232;28;20247;-76
2022/08/18 01:50:55;;;;;;;3.80;2.22;;;23.20;99.90;;;;;;5041726;28;20202;-76
2022/08/18 01:53:23;;;;;;;2.25;2.03;;;23.10;99.90;;;;;;5043706;28;20219;-76
2022/08/18 01:55:51;;;;;;;3.67;2.40;;;23.10;99.90;;;;;;5044076;28;20666;-77
2022/08/18 01:58:24;;;;;;;4.10;2.60;;;23.10;99.90;;;;;;5047941;28;20221;-76
2022/08/18 02:00:52;;;;;;;2.67;2.47;;;23.10;99.90;;;;;;5040515;28;20194;-76
2022/08/18 02:03:19;;;;;;;3.35;2.65;;;23.10;99.90;;;;;;5043790;28;20222;-76
2022/08/18 02:05:50;;;;;;;4.38;2.88;;;23.10;99.90;;;;;;5041314;28;20199;-76
2022/08/18 02:08:17;;;;;;;3.17;2.33;;;23.10;99.90;;;;;;5044554;28;20215;-76
2022/08/18 02:10:44;;;;;;;2.60;2.40;;;23.00;99.90;;;;;;5046017;28;20254;-76
2022/08/18 02:13:13;;;;;;;4.45;2.58;;;23.00;99.90;;;;;;5042965;28;20218;-76
2022/08/18 02:15:41;;;;;;;3.17;2.47;;;23.00;99.90;;;;;;5045592;28;20226;-76
2022/08/18 02:18:13;;;;;;;4.35;2.50;;;23.00;99.90;;;;;;5041791;28;20222;-76
2022/08/18 02:20:41;;;;;;;4.78;2.67;;;23.00;99.90;;;;;;5046625;28;20209;-76
2022/08/18 02:23:08;;;;;;;3.33;3.00;;;23.00;99.90;;;;;;5046134;28;20221;-76
2022/08/18 02:25:35;;;;;;;2.60;2.40;;;23.00;99.90;;;;;;5046057;28;20519;-76
2022/08/18 02:28:02;;;;;;;3.63;2.60;;;23.00;99.90;;;;;;5040967;28;20215;-76
2022/08/18 02:30:30;;;;;;;3.15;2.70;;;22.90;99.90;;;;;;5045611;28;20195;-75
2022/08/18 02:32:58;;;;;;;3.50;2.53;;;22.90;99.90;;;;;;5042371;28;20226;-77
2022/08/18 02:35:25;;;;;;;2.83;2.58;;;22.90;99.90;;;;;;5044530;28;20219;-76
2022/08/18 02:37:52;;;;;;;3.17;2.47;;;22.80;99.90;;;;;;5045316;28;20211;-76
2022/08/18 02:40:19;;;;;;;2.97;2.35;;;22.80;99.90;;;;;;5046050;28;20203;-76
2022/08/18 02:42:48;;;;;;;3.08;2.38;;;22.80;99.90;;;;;;5046487;28;20230;-76
2022/08/18 02:45:15;;;;;;;2.47;2.08;;;22.90;99.90;;;;;;5047111;28;20211;-76
2022/08/18 02:47:44;;;;;;;3.13;2.80;;;22.80;99.90;;;;;;5047543;28;20219;-76
2022/08/18 02:50:12;;;;;;;5.93;2.90;;;22.80;99.90;;;;;;5044675;28;20218;-75
2022/08/18 02:52:40;;;;;;;2.80;2.60;;;22.80;99.90;;;;;;5044761;28;20218;-76
2022/08/18 02:55:07;;;;;;;2.78;2.40;;;22.90;99.90;;;;;;5043802;28;20750;-76
2022/08/18 02:57:34;;;;;;;3.47;2.85;;;22.90;99.90;;;;;;5040734;28;20265;-76
2022/08/18 03:00:02;;;;;;;2.55;2.35;;;22.90;99.90;;;;;;5042388;28;20195;-76
2022/08/18 03:02:30;;;;;;;2.67;2.47;;;22.90;99.90;;;;;;5043892;28;20229;-76
2022/08/18 03:04:59;;;;;;;4.18;2.45;;;22.90;99.90;;;;;;5045712;28;20783;-76
2022/08/18 03:07:26;;;;;;;3.33;2.47;;;23.00;99.90;;;;;;5045383;28;20280;-76
2022/08/18 03:09:53;;;;;;;2.75;2.53;;;22.90;99.90;;;;;;5043974;28;20211;-76
2022/08/18 03:12:20;;;;;;;3.60;2.60;;;22.90;99.90;;;;;;5045118;28;20260;-77
2022/08/18 03:14:48;;;;;;;3.03;2.50;;;22.90;99.90;;;;;;5042378;28;20223;-76
2022/08/18 03:17:15;;;;;;;3.25;2.70;;;22.90;99.90;;;;;;5044704;28;20211;-76
2022/08/18 03:19:44;;;;;;;3.00;2.70;;;22.80;99.90;;;;;;5046835;28;20570;-77
2022/08/18 03:22:13;;;;;;;2.72;2.53;;;22.70;99.90;;;;;;5042711;28;20732;-76
2022/08/18 03:24:40;;;;;;;4.50;2.75;;;22.60;99.90;;;;;;5042071;28;20219;-76
2022/08/18 03:27:08;;;;;;;2.80;2.45;;;22.60;99.90;;;;;;5047263;28;20215;-77
2022/08/18 03:29:36;;;;;;;2.60;2.40;;;22.70;99.90;;;;;;5044016;28;20920;-76
2022/08/18 03:32:05;;;;;;;4.90;2.70;;;22.70;99.90;;;;;;5046969;28;20218;-77
2022/08/18 03:34:32;;;;;;;3.15;2.85;;;22.60;99.90;;;;;;5044865;28;20226;-77
2022/08/18 03:36:59;;;;;;;2.85;2.47;;;22.70;99.90;;;;;;5044567;28;20229;-76
2022/08/18 03:39:29;;;;;;;2.47;2.28;;;22.70;99.90;;;;;;5044934;28;20195;-77
2022/08/18 03:41:57;;;;;;;3.97;2.92;;;22.70;99.90;;;;;;5043633;28;20712;-78
2022/08/18 03:44:25;;;;;;;3.10;2.80;;;22.80;99.90;;;;;;5043838;28;20218;-76
2022/08/18 03:46:52;;;;;;;5.20;3.13;;;22.80;99.90;;;;;;5046889;28;20310;-77
2022/08/18 03:49:20;;;;;;;5.28;3.35;;;22.60;99.90;;;;;;5041294;28;20206;-76
2022/08/18 03:51:48;;;;;;;3.92;3.03;;;22.20;99.90;;;;;;5046358;28;20786;-76
2022/08/18 03:54:16;;;;;;;4.10;2.85;;;22.00;99.90;;;;;;5044983;28;20292;-76
2022/08/18 03:56:46;;;;;;;3.00;2.70;;;22.00;99.90;;;;;;5043304;28;20227;-76
2022/08/18 03:59:16;;;;;;;4.32;2.83;;;22.00;99.90;;;;;;5045359;28;20228;-76
2022/08/18 04:01:45;;;;;;;2.78;2.58;;;22.10;99.90;;;;;;5042509;28;20218;-76
2022/08/18 04:04:15;;;;;;;3.95;2.80;;;22.20;99.90;;;;;;5042861;28;20223;-76
2022/08/18 04:06:44;;;;;;;2.97;2.70;;;22.20;99.90;;;;;;5045707;28;20211;-76
2022/08/18 04:09:14;;;;;;;2.95;2.75;;;22.10;99.90;;;;;;5046860;28;20565;-75
2022/08/18 04:11:42;;;;;;;5.30;3.50;;;22.10;99.90;;;;;;5045969;28;20229;-76
2022/08/18 04:14:13;;;;;;;5.68;3.53;;;22.10;99.90;;;;;;5041563;28;20215;-76
2022/08/18 04:16:40;;;;;;;4.78;3.65;;;21.80;99.90;;;;;;5045217;28;20221;-76
2022/08/18 04:19:08;;;;;;;6.97;4.40;;;21.50;99.90;;;;;;5049876;28;20194;-75
2022/08/18 04:21:37;;;;;;;5.78;4.32;;;21.20;99.90;;;;;;5047764;28;20242;-75
2022/08/18 04:24:07;;;;;;;4.97;3.92;;;21.00;99.90;;;;;;5049952;28;20218;-76
2022/08/18 04:26:37;;;;;;;3.42;3.15;;;21.00;99.90;;;;;;5045277;28;20306;-76
2022/08/18 04:29:04;;;;;;;3.75;3.45;;;21.00;99.90;;;;;;5045317;28;20223;-75
2022/08/18 04:31:32;;;;;;;5.43;3.60;;;21.20;99.90;;;;;;5048002;28;20219;-76
2022/08/18 04:34:02;;;;;;;3.50;3.20;;;21.30;99.90;;;;;;5045209;28;20923;-76
2022/08/18 04:36:30;;;;;;;4.57;3.72;;;21.50;99.90;;;;;;5046793;28;20211;-78
2022/08/18 04:38:58;;;;;;;4.03;3.22;;;21.60;99.90;;;;;;5048776;28;20281;-76
2022/08/18 04:41:26;;;;;;;5.30;3.60;;;21.60;99.90;;;;;;5047147;28;20308;-76
2022/08/18 04:43:54;;;;;;;4.40;3.67;;;21.50;99.90;;;;;;5045845;28;20258;-76
2022/08/18 04:46:21;;;;;;;4.78;3.95;;;21.20;99.90;;;;;;5047274;28;20761;-76
2022/08/18 04:48:49;;;;;;;4.85;3.25;;;21.00;99.90;;;;;;5044396;28;20206;-76
2022/08/18 04:51:19;;;;;;;3.55;3.00;;;21.00;99.90;;;;;;5047129;28;20198;-76
2022/08/18 04:53:46;;;;;;;3.83;3.08;;;21.20;99.90;;;;;;5045016;28;20221;-78
2022/08/18 04:56:24;;;;;;;3.70;3.38;;;21.30;99.90;;;;;;5051855;28;20237;-76
2022/08/18 04:58:52;;;;;;;8.00;5.15;;;21.40;99.90;;;;;;5052868;28;20210;-76
2022/08/18 05:01:21;;;;;;;9.63;6.22;;;20.80;99.90;;;;;;5053610;28;20252;-75
2022/08/18 05:03:50;;;;;;;8.10;5.00;;;20.20;99.90;;;;;;5050532;28;20276;-75
2022/08/18 05:06:23;;;;;;;6.18;5.63;;;19.80;99.90;;;;;;5049962;28;20183;-75
2022/08/18 05:08:52;;;;;;;5.05;4.55;;;19.60;99.90;;;;;;5049403;28;20190;-76
2022/08/18 05:11:20;;;;;;;4.78;4.32;;;19.50;99.90;;;;;;5052643;28;20287;-77
2022/08/18 05:13:47;;;;;;;4.55;3.80;;;19.70;99.90;;;;;;5051046;28;20673;-75
2022/08/18 05:16:15;;;;;;;4.15;3.75;;;20.10;99.90;;;;;;5052992;28;20293;-75
2022/08/18 05:18:42;;;;;;;4.53;3.97;;;20.40;99.90;;;;;;5047490;28;20191;-75
2022/08/18 05:21:14;;;;;;;4.35;3.95;;;20.70;99.90;;;;;;5047577;28;20196;-75
2022/08/18 05:23:42;;;;;;;4.53;3.85;;;20.90;99.90;;;;;;5051851;28;20223;-75
2022/08/18 05:26:10;;;;;;;3.83;3.53;;;21.10;99.90;;;;;;5050085;28;20625;-75
2022/08/18 05:28:37;;;;;;;3.88;3.58;;;21.20;99.90;;;;;;5054836;28;20207;-76
2022/08/18 05:31:10;;;;;;;4.18;3.75;;;21.30;99.90;;;;;;5050139;28;20202;-76
2022/08/18 05:33:38;;;;;;;3.92;3.60;;;21.40;99.90;;;;;;5046073;28;20306;-76
2022/08/18 05:36:16;;;;;;;3.80;3.30;;;21.50;99.90;;;;;;5049411;28;20634;-76
2022/08/18 05:38:55;;;;;;;3.63;3.15;;;21.60;99.90;;;;;;5045496;28;20202;-75
2022/08/18 05:41:28;;;;;;;4.10;3.33;;;21.60;99.90;;;;;;5044479;28;20206;-75
2022/08/18 05:43:58;;;;;;;4.07;3.10;;;21.70;99.90;;;;;;5047220;28;20226;-75
2022/08/18 05:46:37;;;;;;;5.68;3.03;;;21.80;99.90;;;;;;5044005;28;20238;-75
2022/08/18 05:49:05;;;;;;;3.47;3.17;;;21.80;99.90;;;;;;5047777;28;20202;-76
2022/08/18 05:51:34;;;;;;;3.90;3.20;;;21.80;99.90;;;;;;5045664;28;20218;-76
2022/08/18 05:56:52;;;;;;;3.95;3.15;;;21.80;99.90;;;;;;5047240;28;20230;-75
2022/08/18 05:59:23;;;;;;;3.20;2.85;;;21.70;99.90;;;;;;5041448;28;20195;-75
2022/08/18 06:01:56;;;;;;;5.05;3.40;;;21.60;99.90;;;;;;5040744;28;20226;-75
2022/08/18 06:04:31;;;;;;;3.58;3.25;;;21.50;99.90;;;;;;5044872;28;20234;-76
2022/08/18 06:07:04;;;;;;;3.58;3.28;;;21.50;99.90;;;;;;5046694;28;20221;-76
2022/08/18 06:09:42;;;;;;;3.78;3.47;;;21.50;99.90;;;;;;5043772;28;20203;-76
2022/08/18 06:12:19;;;;;;;3.20;2.90;;;21.50;99.90;;;;;;5044583;28;20311;-75
2022/08/18 06:14:46;;;;;;;3.20;2.80;;;21.70;99.90;;;;;;5047639;28;20696;-76
2022/08/18 06:17:32;;;;;;;3.83;3.10;;;21.80;99.90;;;;;;5046179;28;20217;-75
2022/08/18 06:20:09;;;;;;;3.10;2.80;;;21.90;99.90;;;;;;5046968;28;20263;-76
2022/08/18 06:22:44;;;;;;;3.35;3.05;;;22.00;99.90;;;;;;5041993;28;20226;-76
2022/08/18 06:25:18;;;;;;;3.40;3.10;;;22.10;99.90;;;;;;5042104;28;20237;-76
2022/08/18 06:27:55;;;;;;;4.47;3.10;;;22.10;99.90;;;;;;5044281;28;20214;-76
2022/08/18 06:30:29;;;;;;;4.18;3.33;;;22.10;99.90;;;;;;5042664;28;20195;-76
2022/08/18 06:33:08;;;;;;;4.03;3.45;;;21.70;99.90;;;;;;5048434;28;20222;-76
2022/08/18 06:35:39;;;;;;;5.55;4.68;;;21.30;99.90;;;;;;5042710;28;20258;-76
2022/08/18 06:38:40;;;;;;;8.65;4.72;;;20.80;99.90;;;;;;5042523;28;20221;-76
2022/08/18 06:41:15;;;;;;;4.18;3.78;;;20.40;99.90;;;;;;5045147;28;20202;-78
2022/08/18 06:43:53;;;;;;;6.05;3.67;;;20.00;99.90;;;;;;5043860;28;20663;-78
2022/08/18 06:46:26;;;;;;;5.78;4.22;;;19.70;99.90;;;;;;5045779;28;20198;-78
2022/08/18 06:48:56;;;;;;;5.10;3.97;;;19.90;99.90;;;;;;5042797;28;20206;-78
2022/08/18 06:51:28;;;;;;;4.55;3.30;;;20.20;99.90;;;;;;5042283;28;20218;-78
2022/08/18 06:53:58;;;;;;;4.45;3.65;;;20.50;99.90;;;;;;5043851;28;20273;-78
2022/08/18 06:56:33;;;;;;;4.05;3.55;;;20.60;99.90;;;;;;5041700;28;21112;-78
2022/08/18 06:59:21;;;;;;;4.03;3.33;;;20.60;99.90;;;;;;5044377;28;20191;-78
2022/08/18 07:01:52;;;;;;;4.55;3.38;;;20.70;99.90;;;;;;5039762;28;20219;-78
2022/08/18 07:04:59;;;;;;;4.15;3.33;;;21.00;99.90;;;;;;5040082;28;20707;-77
2022/08/18 07:07:33;;;;;;;4.95;3.60;;;21.40;99.90;;;;;;5017934;28;20270;-77
2022/08/18 07:10:00;;;;;;;4.20;3.10;;;21.70;99.90;;;;;;5041308;28;20218;-78
2022/08/18 07:12:30;;;;;;;4.05;3.10;;;21.90;99.90;;;;;;5041309;28;20218;-77
2022/08/18 07:14:59;;;;;;;4.40;3.13;;;22.10;99.90;;;;;;5042764;28;20215;-78
2022/08/18 07:17:30;;;;;;;3.40;2.80;;;22.30;99.90;;;;;;5042610;28;20834;-79
2022/08/18 07:20:06;;;;;;;3.92;3.08;;;22.40;99.90;;;;;;5043340;28;20217;-77
2022/08/18 07:22:53;;;;;;;3.38;3.08;;;22.50;99.90;;;;;;5039744;28;20214;-77
2022/08/18 07:25:24;;;;;;;7.07;4.30;;;22.50;99.90;;;;;;5039621;28;20234;-77
2022/08/18 07:27:55;;;;;;;4.85;4.35;;;22.00;99.90;;;;;;5041452;28;20841;-78
2022/08/18 07:30:29;;;;;;;4.55;4.00;;;21.40;99.90;;;;;;5044306;28;20614;-78
2022/08/18 07:33:02;;;;;;;6.38;4.30;;;21.00;99.90;;;;;;5040219;28;20233;-79
2022/08/18 07:35:37;;;;;;;5.75;3.92;;;21.10;99.90;;;;;;5040383;28;20246;-77
2022/08/18 07:38:16;;;;;;;4.93;3.97;;;21.20;99.90;;;;;;5039401;28;20245;-77
2022/08/18 07:40:52;;;;;;;5.43;3.80;;;21.30;99.90;;;;;;5041171;28;20194;-78
2022/08/18 07:43:27;;;;;;;4.25;3.85;;;21.70;99.90;;;;;;5040170;28;20280;-77
2022/08/18 07:46:06;;;;;;;5.07;4.28;;;22.10;99.90;;;;;;5041599;28;20196;-77
2022/08/18 07:48:34;;;;;;;4.75;3.63;;;22.30;99.90;;;;;;5040545;28;20219;-78
2022/08/18 07:51:12;;;;;;;4.80;4.32;;;22.40;99.90;;;;;;5034577;28;20207;-76
2022/08/18 07:53:51;;;;;;;4.35;3.95;;;22.50;99.90;;;;;;5045355;28;20302;-76
2022/08/18 07:56:23;;;;;;;5.43;4.30;;;22.30;99.90;;;;;;5043256;28;20545;-78
2022/08/18 07:59:01;;;;;;;5.18;4.53;;;22.00;99.90;;;;;;5046568;28;20190;-76
2022/08/18 08:01:37;;;;;;;7.82;5.70;;;21.70;99.90;;;;;;5041266;28;20238;-76
2022/08/18 08:04:15;;;;;;;7.85;6.35;;;21.40;99.90;;;;;;5043338;28;20222;-75
2022/08/18 08:06:48;;;;;;;7.10;6.32;;;21.00;99.90;;;;;;5042596;28;20222;-76
2022/08/18 08:09:25;;;;;;;7.03;6.40;;;20.40;99.90;;;;;;5044992;28;20233;-77
2022/08/18 08:11:57;;;;;;;7.15;5.40;;;19.90;99.90;;;;;;5044775;28;20214;-80
2022/08/18 08:14:40;;;;;;;5.78;5.03;;;19.70;99.90;;;;;;5042450;28;20696;-79
2022/08/18 08:17:16;;;;;;;5.35;4.35;;;19.90;99.90;;;;;;5041759;28;20222;-79
2022/08/18 08:20:09;;;;;;;6.78;4.60;;;20.20;99.90;;;;;;5044049;28;20310;-79
2022/08/18 08:22:44;;;;;;;6.90;6.05;;;20.50;99.90;;;;;;5037783;28;20230;-79
2022/08/18 08:25:19;;;;;;;5.55;5.05;;;20.50;99.90;;;;;;5042530;28;21775;-78
2022/08/18 08:28:06;;;;;;;4.45;4.13;;;20.10;99.90;;;;;;5041620;28;20223;-78
2022/08/18 08:30:42;;;;;;;4.85;4.38;;;19.80;99.90;;;;;;5046695;28;20323;-76
2022/08/18 08:33:17;;;;;;;4.43;4.03;;;19.90;99.90;;;;;;5046269;28;20211;-77
2022/08/18 08:35:51;;;;;;;4.50;4.10;;;19.80;99.90;;;;;;5043329;28;20230;-76
2022/08/18 08:38:23;;;;;;;4.53;4.13;;;19.80;99.90;;;;;;5037630;28;20218;-76
2022/08/18 08:40:57;;;;;;;5.68;4.18;;;19.70;99.90;;;;;;5039269;28;20653;-75
2022/08/18 08:43:31;;;;;;;6.60;4.20;;;19.60;99.90;;;;;;5040279;28;20771;-76
2022/08/18 08:46:07;;;;;;;4.18;3.78;;;19.60;99.90;;;;;;5042165;28;20194;-75
2022/08/18 08:48:40;;;;;;;6.03;3.70;;;19.70;99.90;;;;;;5037453;28;20315;-78
2022/08/18 08:51:25;;;;;;;4.47;3.45;;;19.60;99.90;;;;;;5041238;28;20290;-77
2022/08/18 08:53:58;;;;;;;4.57;3.78;;;19.70;99.90;;;;;;5040728;28;20227;-75
2022/08/18 08:56:30;;;;;;;5.22;4.82;;;19.70;99.90;;;;;;5039985;28;20237;-76
2022/08/18 08:59:01;;;;;;;7.25;5.13;;;19.50;99.90;;;;;;5042709;28;20207;-76
2022/08/18 09:01:34;;;;;;;8.85;6.18;;;19.40;99.90;;;;;;5038475;28;20230;-75
2022/08/18 09:04:10;;;;;;;8.68;5.82;;;19.10;99.90;;;;;;5041952;28;20580;-76
2022/08/18 09:06:48;;;;;;;8.27;6.20;;;19.10;99.90;;;;;;5041564;28;20297;-76
2022/08/18 09:09:39;;;;;;;8.40;6.43;;;19.10;99.90;;;;;;5041651;28;20213;-75
2022/08/18 09:12:19;;;;;;;5.60;5.10;;;19.00;99.90;;;;;;5039191;28;20222;-76
2022/08/18 09:15:20;;;;;;;7.57;5.43;;;19.00;99.90;;;;;;5041654;28;20614;-76
2022/08/18 09:18:04;;;;;;;6.07;4.90;;;19.10;99.90;;;;;;5039932;28;20904;-75
2022/08/18 09:20:49;;;;;;;5.78;4.40;;;19.40;99.90;;;;;;5034270;28;20204;-75
2022/08/18 09:23:18;;;;;;;7.28;4.50;;;19.60;99.90;;;;;;5036207;28;20215;-75
2022/08/18 09:25:49;;;;;;;4.00;3.67;;;19.90;99.90;;;;;;5039325;28;20199;-76
2022/08/18 09:28:19;;;;;;;5.93;4.20;;;20.20;99.90;;;;;;5040019;28;20287;-76
2022/08/18 09:30:51;;;;;;;5.65;4.15;;;20.50;99.90;;;;;;5037036;28;20195;-76
2022/08/18 09:33:28;;;;;;;3.95;3.47;;;20.80;99.90;;;;;;5039106;28;20294;-76
2022/08/18 09:36:29;;;;;;;6.07;4.65;;;21.20;99.90;;;;;;5036624;28;20205;-73
2022/08/18 09:41:51;;;;;;;8.02;5.30;;;21.40;99.90;;;;;;5036866;28;20225;-75
2022/08/18 09:44:51;;;;;;;6.10;4.68;;;21.60;99.90;;;;;;5039070;28;20215;-74
2022/08/18 09:47:51;;;;;;;5.00;4.20;;;21.80;99.90;;;;;;5038217;28;20219;-75
2022/08/18 09:50:55;;;;;;;6.57;5.50;;;21.70;99.90;;;;;;5039421;28;20206;-74
2022/08/18 09:53:36;;;;;;;5.60;4.65;;;21.50;99.90;;;;;;5040326;28;22354;-74
2022/08/18 09:56:05;;;;;;;4.97;4.47;;;21.30;99.90;;;;;;5040817;28;20256;-76
2022/08/18 09:58:53;;;;;;;4.90;3.90;;;21.20;99.90;;;;;;5039397;28;20811;-76
2022/08/18 10:01:36;;;;;;;4.90;4.40;;;21.20;99.90;;;;;;5039904;28;20576;-75
2022/08/18 10:04:30;;;;;;;4.88;4.43;;;21.30;99.90;;;;;;5037150;28;20400;-75
2022/08/18 10:07:34;;;;;;;4.60;3.88;;;21.20;99.90;;;;;;5038796;28;20222;-75
2022/08/18 10:10:12;;;;;;;4.70;4.30;;;21.00;99.90;;;;;;5041017;28;20768;-75
2022/08/18 10:13:07;;;;;;;3.65;3.35;;;21.20;99.90;;;;;;5037074;28;20222;-76
2022/08/18 10:15:59;;;;;;;6.32;4.22;;;21.60;99.90;;;;;;5041193;28;20309;-75
2022/08/18 10:18:51;;;;;;;3.92;3.53;;;22.10;99.90;;;;;;5039685;28;20219;-76
2022/08/18 10:21:26;;;;;;;9.15;4.32;;;22.30;99.90;;;;;;5041667;28;20210;-76
2022/08/18 10:23:58;;;;;;;5.75;4.63;;;22.20;99.90;;;;;;5039205;28;20223;-76
2022/08/18 10:27:08;;;;;;;4.65;3.65;;;22.00;99.90;;;;;;5040497;28;20254;-76
2022/08/18 10:29:53;;;;;;;4.15;3.75;;;21.80;99.90;;;;;;5036894;28;20526;-76
2022/08/18 10:32:37;;;;;;;4.25;3.83;;;21.60;99.90;;;;;;5038176;28;20226;-77
2022/08/18 10:35:26;;;;;;;3.83;3.50;;;21.60;99.90;;;;;;5040435;28;20264;-76
2022/08/18 10:37:53;;;;;;;3.20;3.00;;;21.70;99.90;;;;;;5038200;28;20234;-76
2022/08/18 10:40:24;;;;;;;3.65;3.15;;;21.70;99.90;;;;;;5037598;28;20199;-75
2022/08/18 10:42:55;;;;;;;4.57;3.78;;;21.80;99.90;;;;;;5041709;28;20219;-77
2022/08/18 10:45:28;;;;;;;5.53;4.60;;;22.00;99.90;;;;;;5041149;28;20218;-76
2022/08/18 10:48:08;;;;;;;5.00;4.13;;;22.10;99.90;;;;;;5041377;28;20219;-76
2022/08/18 10:50:41;;;;;;;4.10;3.67;;;22.20;99.90;;;;;;5038517;28;20202;-76
2022/08/18 10:53:16;;;;;;;4.13;3.65;;;22.20;99.90;;;;;;5041322;28;20211;-77
2022/08/18 10:55:50;;;;;;;3.97;3.60;;;22.20;99.90;;;;;;5038377;28;20206;-77
2022/08/18 10:58:46;;;;;;;4.80;3.80;;;22.20;99.90;;;;;;5039203;28;20242;-76
2022/08/18 11:01:28;;;;;;;4.72;3.65;;;22.30;99.90;;;;;;5035001;28;20196;-76
2022/08/18 11:04:26;;;;;;;4.95;4.00;;;22.10;99.90;;;;;;5039949;28;20219;-76
2022/08/18 11:07:02;;;;;;;3.92;3.60;;;21.60;99.90;;;;;;5038345;28;20648;-77
2022/08/18 11:09:31;;;;;;;4.75;3.67;;;21.40;99.90;;;;;;5032420;28;20615;-76
2022/08/18 11:12:02;;;;;;;6.15;4.32;;;21.40;99.90;;;;;;5037688;28;20650;-80
2022/08/18 11:15:04;;;;;;;7.85;4.13;;;21.20;99.90;;;;;;5038224;28;20210;-76
2022/08/18 11:17:42;;;;;;;5.05;4.05;;;20.90;99.90;;;;;;5034209;28;20645;-72
2022/08/18 11:20:11;;;;;;;4.72;3.90;;;20.50;99.90;;;;;;5037817;28;20661;-72
2022/08/18 11:22:38;;;;;;;3.50;3.22;;;20.40;99.90;;;;;;5035681;28;20903;-72
2022/08/18 11:25:21;;;;;;;3.97;3.22;;;20.30;99.90;;;;;;5039643;28;20215;-73
2022/08/18 11:27:49;;;;;;;3.53;3.13;;;20.40;99.90;;;;;;5037248;28;20215;-73
2022/08/18 11:30:17;;;;;;;3.67;3.00;;;20.40;99.90;;;;;;5037298;28;20198;-72
2022/08/18 11:32:45;;;;;;;3.15;2.85;;;20.40;99.90;;;;;;5035519;28;20942;-72
2022/08/18 11:35:15;;;;;;;2.70;2.50;;;20.50;99.90;;;;;;5037475;28;20227;-73
2022/08/18 11:37:46;;;;;;;5.38;2.70;;;20.50;99.90;;;;;;5037553;28;20223;-72
2022/08/18 11:40:26;;;;;;;2.50;2.22;;;20.50;99.90;;;;;;5040133;28;20202;-72
2022/08/18 11:42:58;;;;;;;2.67;2.45;;;20.40;99.90;;;;;;5036988;28;20218;-73
2022/08/18 11:45:32;;;;;;;3.08;2.60;;;20.40;99.90;;;;;;5040316;28;20230;-72
2022/08/18 11:48:01;;;;;;;3.33;2.65;;;20.40;99.90;;;;;;5039647;28;20278;-71
2022/08/18 11:50:30;;;;;;;4.93;2.40;;;20.30;99.90;;;;;;5038741;28;20213;-73
2022/08/18 11:53:12;;;;;;;3.63;2.97;;;20.10;99.90;;;;;;5040356;28;20226;-73
2022/08/18 11:55:40;;;;;;;3.80;3.08;;;20.10;99.90;;;;;;5040021;28;20199;-73
2022/08/18 11:58:08;;;;;;;3.10;2.67;;;20.00;99.90;;;;;;5037593;28;20219;-73
2022/08/18 12:00:42;;;;;;;3.80;2.88;;;20.00;99.90;;;;;;5037610;28;20227;-72
2022/08/18 12:03:16;;;;;;;3.38;2.70;;;20.00;99.90;;;;;;5037917;28;20219;-73
2022/08/18 12:05:46;;;;;;;3.65;3.08;;;19.90;99.90;;;;;;5038738;28;20239;-73
2022/08/18 12:08:20;;;;;;;4.03;3.28;;;19.80;99.90;;;;;;5036771;28;20316;-72
2022/08/18 12:10:48;;;;;;;4.57;3.53;;;19.70;99.90;;;;;;5039415;28;20374;-73
2022/08/18 12:13:25;;;;;;;4.40;4.00;;;19.50;99.90;;;;;;5037904;28;20682;-73
2022/08/18 12:16:10;;;;;;;7.00;3.13;;;19.40;99.90;;;;;;5039298;28;20198;-72
2022/08/18 12:18:37;;;;;;;3.95;3.33;;;19.30;99.90;;;;;;5042566;28;20239;-72
2022/08/18 12:21:05;;;;;;;3.70;3.40;;;19.30;99.90;;;;;;5039112;28;20226;-73
2022/08/18 12:23:33;;;;;;;3.10;2.80;;;19.30;99.90;;;;;;5035965;28;20246;-71
2022/08/18 12:26:01;;;;;;;3.13;2.92;;;19.40;99.90;;;;;;5037545;28;20304;-72
2022/08/18 12:28:29;;;;;;;3.38;2.70;;;19.50;99.90;;;;;;5035947;28;20211;-72
2022/08/18 12:30:56;;;;;;;3.35;2.85;;;19.60;99.90;;;;;;5039412;28;20199;-72
2022/08/18 12:33:24;;;;;;;2.88;2.67;;;19.70;99.90;;;;;;5036746;28;20804;-72
2022/08/18 12:35:51;;;;;;;2.88;2.67;;;19.80;99.90;;;;;;5038385;28;20205;-72
2022/08/18 12:38:18;;;;;;;2.50;2.35;;;19.80;99.90;;;;;;5035293;28;20222;-73
2022/08/18 12:40:45;;;;;;;3.05;2.75;;;19.80;99.90;;;;;;5041815;28;20210;-72
2022/08/18 12:43:12;;;;;;;5.65;2.88;;;19.80;99.90;;;;;;5041313;28;20888;-71
2022/08/18 12:45:41;;;;;;;3.28;2.90;;;19.80;99.90;;;;;;5036481;28;20210;-72
2022/08/18 12:48:09;;;;;;;3.60;3.10;;;19.80;99.90;;;;;;5038353;28;21727;-73
2022/08/18 12:50:37;;;;;;;2.92;2.70;;;19.80;99.90;;;;;;5039497;28;20198;-72
2022/08/18 12:53:04;;;;;;;4.90;4.28;;;19.80;99.90;;;;;;5040901;28;20262;-72
2022/08/18 12:55:36;;;;;;;4.78;3.15;;;19.80;99.90;;;;;;5038631;28;20298;-71
2022/08/18 12:58:04;;;;;;;3.67;3.38;;;19.70;99.90;;;;;;5039354;28;20357;-72
2022/08/18 13:00:31;;;;;;;3.80;3.17;;;19.60;99.90;;;;;;5039925;28;20750;-72
2022/08/18 13:02:59;;;;;;;3.88;3.35;;;19.40;99.90;;;;;;5042121;28;20239;-72
2022/08/18 13:05:27;;;;;;;3.70;3.38;;;19.40;99.90;;;;;;5037955;28;20214;-72
2022/08/18 13:07:54;;;;;;;3.63;2.75;;;19.30;99.90;;;;;;5038789;28;20223;-71
2022/08/18 13:10:21;;;;;;;3.50;3.13;;;19.20;99.90;;;;;;5037527;28;20217;-72
2022/08/18 13:12:48;;;;;;;3.72;3.30;;;19.30;99.90;;;;;;5039766;28;20226;-72
2022/08/18 13:15:16;;;;;;;3.40;2.65;;;19.60;99.90;;;;;;5039808;28;20211;-72
2022/08/18 13:17:43;;;;;;;3.60;2.70;;;19.90;99.90;;;;;;5038905;28;20230;-72
2022/08/18 13:20:14;;;;;;;2.95;2.65;;;20.20;99.90;;;;;;5038652;28;20218;-72
2022/08/18 13:22:42;;;;;;;2.55;2.35;;;20.40;99.90;;;;;;5040505;28;20305;-73
2022/08/18 13:25:12;;;;;;;3.00;2.80;;;20.60;99.90;;;;;;5040066;28;20475;-72
2022/08/18 13:27:40;;;;;;;8.02;5.07;;;20.70;99.90;;;;;;5035896;28;20214;-75